sensor_id;sensor_type;location;lat;lon;timestamp;P1;durP1;ratioP1;P2;durP2;ratioP2
54171;SDS011;40076;52.354;4.970;2023-03-01T00:02:06;30.90;;;20.15;;
54171;SDS011;40076;52.354;4.970;2023-03-01T00:04:31;26.70;;;19.70;;
54171;SDS011;40076;52.354;4.970;2023-03-01T00:06:57;25.70;;;18.50;;
54171;SDS011;40076;52.354;4.970;2023-03-01T00:09:22;27.75;;;20.15;;
54171;SDS011;40076;52.354;4.970;2023-03-01T00:11:48;28.90;;;20.40;;
54171;SDS011;40076;52.354;4.970;2023-03-01T00:14:13;32.85;;;20.35;;
54171;SDS011;40076;52.354;4.970;2023-03-01T00:16:41;30.95;;;20.23;;
54171;SDS011;40076;52.354;4.970;2023-03-01T00:19:14;29.30;;;20.92;;
54171;SDS011;40076;52.354;4.970;2023-03-01T00:21:41;29.98;;;19.80;;
54171;SDS011;40076;52.354;4.970;2023-03-01T00:24:06;27.90;;;19.05;;
54171;SDS011;40076;52.354;4.970;2023-03-01T00:26:32;28.98;;;18.85;;
54171;SDS011;40076;52.354;4.970;2023-03-01T00:28:58;25.63;;;17.70;;
54171;SDS011;40076;52.354;4.970;2023-03-01T00:31:25;25.08;;;17.10;;
54171;SDS011;40076;52.354;4.970;2023-03-01T00:33:55;26.00;;;17.67;;
54171;SDS011;40076;52.354;4.970;2023-03-01T00:36:22;23.60;;;17.20;;
54171;SDS011;40076;52.354;4.970;2023-03-01T00:38:49;24.65;;;17.27;;
54171;SDS011;40076;52.354;4.970;2023-03-01T00:41:15;25.15;;;17.13;;
54171;SDS011;40076;52.354;4.970;2023-03-01T00:43:42;24.38;;;16.80;;
54171;SDS011;40076;52.354;4.970;2023-03-01T00:46:09;23.27;;;16.67;;
54171;SDS011;40076;52.354;4.970;2023-03-01T00:48:39;22.55;;;16.55;;
54171;SDS011;40076;52.354;4.970;2023-03-01T00:51:19;25.63;;;17.25;;
54171;SDS011;40076;52.354;4.970;2023-03-01T00:53:46;23.35;;;16.65;;
54171;SDS011;40076;52.354;4.970;2023-03-01T00:56:12;23.98;;;16.80;;
54171;SDS011;40076;52.354;4.970;2023-03-01T00:58:38;24.05;;;17.05;;
54171;SDS011;40076;52.354;4.970;2023-03-01T01:01:11;25.80;;;17.13;;
54171;SDS011;40076;52.354;4.970;2023-03-01T01:03:49;26.17;;;16.67;;
54171;SDS011;40076;52.354;4.970;2023-03-01T01:06:21;20.75;;;15.50;;
54171;SDS011;40076;52.354;4.970;2023-03-01T01:08:49;26.80;;;18.05;;
54171;SDS011;40076;52.354;4.970;2023-03-01T01:11:15;22.60;;;16.55;;
54171;SDS011;40076;52.354;4.970;2023-03-01T01:13:41;22.98;;;16.70;;
54171;SDS011;40076;52.354;4.970;2023-03-01T01:16:07;26.15;;;17.30;;
54171;SDS011;40076;52.354;4.970;2023-03-01T01:18:33;24.85;;;17.35;;
54171;SDS011;40076;52.354;4.970;2023-03-01T01:21:02;23.50;;;16.65;;
54171;SDS011;40076;52.354;4.970;2023-03-01T01:23:38;23.45;;;16.52;;
54171;SDS011;40076;52.354;4.970;2023-03-01T01:26:06;25.48;;;17.08;;
54171;SDS011;40076;52.354;4.970;2023-03-01T01:28:35;24.23;;;17.52;;
54171;SDS011;40076;52.354;4.970;2023-03-01T01:31:01;26.75;;;16.95;;
54171;SDS011;40076;52.354;4.970;2023-03-01T01:33:27;24.15;;;16.90;;
54171;SDS011;40076;52.354;4.970;2023-03-01T01:35:52;23.13;;;17.63;;
54171;SDS011;40076;52.354;4.970;2023-03-01T01:38:18;23.02;;;17.20;;
54171;SDS011;40076;52.354;4.970;2023-03-01T01:40:44;27.52;;;18.52;;
54171;SDS011;40076;52.354;4.970;2023-03-01T01:43:15;24.80;;;18.63;;
54171;SDS011;40076;52.354;4.970;2023-03-01T01:45:48;25.35;;;18.45;;
54171;SDS011;40076;52.354;4.970;2023-03-01T01:48:16;23.02;;;17.85;;
54171;SDS011;40076;52.354;4.970;2023-03-01T01:50:45;27.00;;;18.80;;
54171;SDS011;40076;52.354;4.970;2023-03-01T01:53:17;25.02;;;19.00;;
54171;SDS011;40076;52.354;4.970;2023-03-01T01:55:49;24.45;;;18.35;;
54171;SDS011;40076;52.354;4.970;2023-03-01T01:58:18;24.00;;;17.60;;
54171;SDS011;40076;52.354;4.970;2023-03-01T02:00:46;27.33;;;18.65;;
54171;SDS011;40076;52.354;4.970;2023-03-01T02:03:13;24.90;;;17.92;;
54171;SDS011;40076;52.354;4.970;2023-03-01T02:08:20;26.83;;;17.55;;
54171;SDS011;40076;52.354;4.970;2023-03-01T02:10:46;26.60;;;18.67;;
54171;SDS011;40076;52.354;4.970;2023-03-01T02:13:14;23.13;;;17.15;;
54171;SDS011;40076;52.354;4.970;2023-03-01T02:15:39;25.95;;;17.98;;
54171;SDS011;40076;52.354;4.970;2023-03-01T02:18:07;23.92;;;17.85;;
54171;SDS011;40076;52.354;4.970;2023-03-01T02:23:37;23.13;;;17.33;;
54171;SDS011;40076;52.354;4.970;2023-03-01T02:26:16;28.13;;;18.17;;
54171;SDS011;40076;52.354;4.970;2023-03-01T02:29:09;26.23;;;18.52;;
54171;SDS011;40076;52.354;4.970;2023-03-01T02:31:35;26.60;;;18.23;;
54171;SDS011;40076;52.354;4.970;2023-03-01T02:34:06;26.08;;;17.98;;
54171;SDS011;40076;52.354;4.970;2023-03-01T02:36:37;27.17;;;18.73;;
54171;SDS011;40076;52.354;4.970;2023-03-01T02:39:06;25.65;;;18.85;;
54171;SDS011;40076;52.354;4.970;2023-03-01T02:41:39;26.55;;;19.08;;
54171;SDS011;40076;52.354;4.970;2023-03-01T02:44:07;26.65;;;18.90;;
54171;SDS011;40076;52.354;4.970;2023-03-01T02:46:33;27.15;;;19.45;;
54171;SDS011;40076;52.354;4.970;2023-03-01T02:49:20;27.33;;;19.63;;
54171;SDS011;40076;52.354;4.970;2023-03-01T02:51:54;28.65;;;19.95;;
54171;SDS011;40076;52.354;4.970;2023-03-01T02:57:23;25.40;;;18.40;;
54171;SDS011;40076;52.354;4.970;2023-03-01T02:59:52;27.02;;;19.65;;
54171;SDS011;40076;52.354;4.970;2023-03-01T03:02:25;27.95;;;19.85;;
54171;SDS011;40076;52.354;4.970;2023-03-01T03:07:38;28.27;;;19.63;;
54171;SDS011;40076;52.354;4.970;2023-03-01T03:10:05;26.23;;;19.20;;
54171;SDS011;40076;52.354;4.970;2023-03-01T03:12:32;27.38;;;19.77;;
54171;SDS011;40076;52.354;4.970;2023-03-01T03:15:00;28.02;;;19.85;;
54171;SDS011;40076;52.354;4.970;2023-03-01T03:17:25;25.45;;;19.00;;
54171;SDS011;40076;52.354;4.970;2023-03-01T03:19:51;28.15;;;19.55;;
54171;SDS011;40076;52.354;4.970;2023-03-01T03:22:16;26.83;;;18.90;;
54171;SDS011;40076;52.354;4.970;2023-03-01T03:24:41;24.20;;;18.10;;
54171;SDS011;40076;52.354;4.970;2023-03-01T03:27:07;24.58;;;18.90;;
54171;SDS011;40076;52.354;4.970;2023-03-01T03:29:32;26.77;;;17.30;;
54171;SDS011;40076;52.354;4.970;2023-03-01T03:31:58;29.77;;;19.52;;
54171;SDS011;40076;52.354;4.970;2023-03-01T03:34:23;31.55;;;21.17;;
54171;SDS011;40076;52.354;4.970;2023-03-01T03:36:52;23.48;;;18.05;;
54171;SDS011;40076;52.354;4.970;2023-03-01T03:39:22;20.88;;;14.73;;
54171;SDS011;40076;52.354;4.970;2023-03-01T03:41:48;27.30;;;18.30;;
54171;SDS011;40076;52.354;4.970;2023-03-01T03:44:13;25.10;;;17.10;;
54171;SDS011;40076;52.354;4.970;2023-03-01T03:46:39;23.95;;;18.35;;
54171;SDS011;40076;52.354;4.970;2023-03-01T03:49:04;26.48;;;17.73;;
54171;SDS011;40076;52.354;4.970;2023-03-01T03:51:29;24.75;;;18.92;;
54171;SDS011;40076;52.354;4.970;2023-03-01T03:53:54;28.52;;;19.20;;
54171;SDS011;40076;52.354;4.970;2023-03-01T03:56:20;25.35;;;17.70;;
54171;SDS011;40076;52.354;4.970;2023-03-01T03:58:45;24.10;;;17.75;;
54171;SDS011;40076;52.354;4.970;2023-03-01T04:01:10;22.45;;;16.75;;
54171;SDS011;40076;52.354;4.970;2023-03-01T04:03:36;23.17;;;17.38;;
54171;SDS011;40076;52.354;4.970;2023-03-01T04:06:01;23.88;;;17.48;;
54171;SDS011;40076;52.354;4.970;2023-03-01T04:08:28;25.08;;;17.35;;
54171;SDS011;40076;52.354;4.970;2023-03-01T04:10:57;25.20;;;17.48;;
54171;SDS011;40076;52.354;4.970;2023-03-01T04:13:25;23.67;;;18.20;;
54171;SDS011;40076;52.354;4.970;2023-03-01T04:15:53;24.60;;;16.48;;
54171;SDS011;40076;52.354;4.970;2023-03-01T04:18:20;23.27;;;17.17;;
54171;SDS011;40076;52.354;4.970;2023-03-01T04:20:46;24.50;;;18.08;;
54171;SDS011;40076;52.354;4.970;2023-03-01T04:23:16;23.23;;;17.23;;
54171;SDS011;40076;52.354;4.970;2023-03-01T04:25:48;18.83;;;14.40;;
54171;SDS011;40076;52.354;4.970;2023-03-01T04:28:18;33.95;;;20.48;;
54171;SDS011;40076;52.354;4.970;2023-03-01T04:30:58;25.80;;;18.52;;
54171;SDS011;40076;52.354;4.970;2023-03-01T04:33:37;25.08;;;17.95;;
54171;SDS011;40076;52.354;4.970;2023-03-01T04:36:05;26.35;;;18.50;;
54171;SDS011;40076;52.354;4.970;2023-03-01T04:38:33;28.45;;;19.08;;
54171;SDS011;40076;52.354;4.970;2023-03-01T04:41:00;26.50;;;17.65;;
54171;SDS011;40076;52.354;4.970;2023-03-01T04:43:25;27.00;;;19.50;;
54171;SDS011;40076;52.354;4.970;2023-03-01T04:45:50;29.15;;;18.45;;
54171;SDS011;40076;52.354;4.970;2023-03-01T04:48:16;27.25;;;19.15;;
54171;SDS011;40076;52.354;4.970;2023-03-01T04:50:41;25.98;;;18.98;;
54171;SDS011;40076;52.354;4.970;2023-03-01T04:53:06;26.70;;;19.08;;
54171;SDS011;40076;52.354;4.970;2023-03-01T04:55:32;23.58;;;17.42;;
54171;SDS011;40076;52.354;4.970;2023-03-01T04:57:58;23.90;;;18.48;;
54171;SDS011;40076;52.354;4.970;2023-03-01T05:00:24;27.75;;;18.88;;
54171;SDS011;40076;52.354;4.970;2023-03-01T05:05:19;24.65;;;18.80;;
54171;SDS011;40076;52.354;4.970;2023-03-01T05:07:50;27.75;;;19.70;;
54171;SDS011;40076;52.354;4.970;2023-03-01T05:10:17;24.25;;;17.38;;
54171;SDS011;40076;52.354;4.970;2023-03-01T05:12:42;26.45;;;19.33;;
54171;SDS011;40076;52.354;4.970;2023-03-01T05:15:07;26.58;;;19.48;;
54171;SDS011;40076;52.354;4.970;2023-03-01T05:17:33;25.52;;;17.63;;
54171;SDS011;40076;52.354;4.970;2023-03-01T05:19:59;28.02;;;19.92;;
54171;SDS011;40076;52.354;4.970;2023-03-01T05:22:25;24.67;;;18.13;;
54171;SDS011;40076;52.354;4.970;2023-03-01T05:24:50;26.45;;;18.42;;
54171;SDS011;40076;52.354;4.970;2023-03-01T05:27:16;26.73;;;18.67;;
54171;SDS011;40076;52.354;4.970;2023-03-01T05:29:41;25.23;;;18.98;;
54171;SDS011;40076;52.354;4.970;2023-03-01T05:32:06;25.95;;;18.95;;
54171;SDS011;40076;52.354;4.970;2023-03-01T05:34:34;24.35;;;18.55;;
54171;SDS011;40076;52.354;4.970;2023-03-01T05:37:01;27.85;;;18.88;;
54171;SDS011;40076;52.354;4.970;2023-03-01T05:39:27;25.20;;;19.05;;
54171;SDS011;40076;52.354;4.970;2023-03-01T05:41:55;28.35;;;19.38;;
54171;SDS011;40076;52.354;4.970;2023-03-01T05:44:21;26.92;;;19.92;;
54171;SDS011;40076;52.354;4.970;2023-03-01T05:46:48;28.30;;;19.15;;
54171;SDS011;40076;52.354;4.970;2023-03-01T05:49:14;26.58;;;19.35;;
54171;SDS011;40076;52.354;4.970;2023-03-01T05:51:40;27.67;;;19.63;;
54171;SDS011;40076;52.354;4.970;2023-03-01T05:54:06;25.05;;;18.05;;
54171;SDS011;40076;52.354;4.970;2023-03-01T05:56:33;29.40;;;19.65;;
54171;SDS011;40076;52.354;4.970;2023-03-01T05:58:59;29.33;;;19.50;;
54171;SDS011;40076;52.354;4.970;2023-03-01T06:01:25;28.10;;;19.73;;
54171;SDS011;40076;52.354;4.970;2023-03-01T06:03:50;27.42;;;19.70;;
54171;SDS011;40076;52.354;4.970;2023-03-01T06:06:15;27.20;;;19.05;;
54171;SDS011;40076;52.354;4.970;2023-03-01T06:08:41;29.88;;;19.95;;
54171;SDS011;40076;52.354;4.970;2023-03-01T06:11:06;29.98;;;20.35;;
54171;SDS011;40076;52.354;4.970;2023-03-01T06:13:32;28.67;;;19.95;;
54171;SDS011;40076;52.354;4.970;2023-03-01T06:15:57;30.42;;;20.38;;
54171;SDS011;40076;52.354;4.970;2023-03-01T06:18:23;27.92;;;20.20;;
54171;SDS011;40076;52.354;4.970;2023-03-01T06:20:54;29.13;;;19.98;;
54171;SDS011;40076;52.354;4.970;2023-03-01T06:23:20;30.80;;;19.90;;
54171;SDS011;40076;52.354;4.970;2023-03-01T06:25:46;29.00;;;19.73;;
54171;SDS011;40076;52.354;4.970;2023-03-01T06:28:11;29.33;;;19.55;;
54171;SDS011;40076;52.354;4.970;2023-03-01T06:30:36;30.08;;;19.85;;
54171;SDS011;40076;52.354;4.970;2023-03-01T06:33:01;29.42;;;19.90;;
54171;SDS011;40076;52.354;4.970;2023-03-01T06:35:28;30.45;;;20.45;;
54171;SDS011;40076;52.354;4.970;2023-03-01T06:37:55;32.88;;;21.05;;
54171;SDS011;40076;52.354;4.970;2023-03-01T06:40:21;33.03;;;21.48;;
54171;SDS011;40076;52.354;4.970;2023-03-01T06:42:50;31.55;;;21.90;;
54171;SDS011;40076;52.354;4.970;2023-03-01T06:45:16;37.30;;;21.88;;
54171;SDS011;40076;52.354;4.970;2023-03-01T06:47:42;33.38;;;23.05;;
54171;SDS011;40076;52.354;4.970;2023-03-01T06:50:08;36.53;;;23.02;;
54171;SDS011;40076;52.354;4.970;2023-03-01T06:52:34;37.80;;;23.10;;
54171;SDS011;40076;52.354;4.970;2023-03-01T06:54:59;36.22;;;22.80;;
54171;SDS011;40076;52.354;4.970;2023-03-01T06:57:25;35.38;;;23.23;;
54171;SDS011;40076;52.354;4.970;2023-03-01T06:59:50;30.95;;;20.63;;
54171;SDS011;40076;52.354;4.970;2023-03-01T07:02:16;35.70;;;22.55;;
54171;SDS011;40076;52.354;4.970;2023-03-01T07:04:41;34.97;;;22.08;;
54171;SDS011;40076;52.354;4.970;2023-03-01T07:07:07;33.03;;;21.10;;
54171;SDS011;40076;52.354;4.970;2023-03-01T07:09:33;34.40;;;21.30;;
54171;SDS011;40076;52.354;4.970;2023-03-01T07:11:59;32.25;;;20.65;;
54171;SDS011;40076;52.354;4.970;2023-03-01T07:14:24;36.42;;;21.83;;
54171;SDS011;40076;52.354;4.970;2023-03-01T07:16:50;65.18;;;21.88;;
54171;SDS011;40076;52.354;4.970;2023-03-01T07:19:16;38.28;;;20.90;;
54171;SDS011;40076;52.354;4.970;2023-03-01T07:21:41;54.13;;;22.25;;
54171;SDS011;40076;52.354;4.970;2023-03-01T07:24:07;57.00;;;21.25;;
54171;SDS011;40076;52.354;4.970;2023-03-01T07:26:33;52.97;;;21.17;;
54171;SDS011;40076;52.354;4.970;2023-03-01T07:28:59;40.28;;;21.35;;
54171;SDS011;40076;52.354;4.970;2023-03-01T07:31:25;51.00;;;20.55;;
54171;SDS011;40076;52.354;4.970;2023-03-01T07:33:52;66.80;;;22.13;;
54171;SDS011;40076;52.354;4.970;2023-03-01T07:36:18;130.68;;;22.45;;
54171;SDS011;40076;52.354;4.970;2023-03-01T07:38:43;43.15;;;21.27;;
54171;SDS011;40076;52.354;4.970;2023-03-01T07:41:08;75.63;;;20.38;;
54171;SDS011;40076;52.354;4.970;2023-03-01T07:43:34;111.78;;;21.70;;
54171;SDS011;40076;52.354;4.970;2023-03-01T07:46:00;41.28;;;18.80;;
54171;SDS011;40076;52.354;4.970;2023-03-01T07:48:25;40.72;;;18.77;;
54171;SDS011;40076;52.354;4.970;2023-03-01T07:50:51;27.52;;;18.73;;
54171;SDS011;40076;52.354;4.970;2023-03-01T07:53:16;30.60;;;19.00;;
54171;SDS011;40076;52.354;4.970;2023-03-01T07:55:41;35.65;;;19.35;;
54171;SDS011;40076;52.354;4.970;2023-03-01T07:58:07;59.88;;;19.98;;
54171;SDS011;40076;52.354;4.970;2023-03-01T08:00:32;34.80;;;18.58;;
54171;SDS011;40076;52.354;4.970;2023-03-01T08:03:01;113.60;;;21.58;;
54171;SDS011;40076;52.354;4.970;2023-03-01T08:05:27;69.45;;;21.60;;
54171;SDS011;40076;52.354;4.970;2023-03-01T08:07:53;88.68;;;21.65;;
54171;SDS011;40076;52.354;4.970;2023-03-01T08:10:18;170.93;;;23.23;;
54171;SDS011;40076;52.354;4.970;2023-03-01T08:12:44;94.95;;;22.00;;
54171;SDS011;40076;52.354;4.970;2023-03-01T08:15:09;95.65;;;22.33;;
54171;SDS011;40076;52.354;4.970;2023-03-01T08:17:35;73.13;;;22.13;;
54171;SDS011;40076;52.354;4.970;2023-03-01T08:20:00;139.35;;;22.38;;
54171;SDS011;40076;52.354;4.970;2023-03-01T08:22:26;127.70;;;22.70;;
54171;SDS011;40076;52.354;4.970;2023-03-01T08:24:51;172.63;;;24.45;;
54171;SDS011;40076;52.354;4.970;2023-03-01T08:27:16;126.68;;;23.33;;
54171;SDS011;40076;52.354;4.970;2023-03-01T08:29:42;66.05;;;23.35;;
54171;SDS011;40076;52.354;4.970;2023-03-01T08:32:08;158.23;;;24.92;;
54171;SDS011;40076;52.354;4.970;2023-03-01T08:34:39;54.78;;;24.38;;
54171;SDS011;40076;52.354;4.970;2023-03-01T08:37:05;90.68;;;25.98;;
54171;SDS011;40076;52.354;4.970;2023-03-01T08:39:30;143.73;;;27.85;;
54171;SDS011;40076;52.354;4.970;2023-03-01T08:41:56;53.05;;;24.00;;
54171;SDS011;40076;52.354;4.970;2023-03-01T08:44:21;114.72;;;26.45;;
54171;SDS011;40076;52.354;4.970;2023-03-01T08:46:47;67.45;;;27.77;;
54171;SDS011;40076;52.354;4.970;2023-03-01T08:49:15;97.63;;;24.23;;
54171;SDS011;40076;52.354;4.970;2023-03-01T08:51:43;230.82;;;25.58;;
54171;SDS011;40076;52.354;4.970;2023-03-01T08:54:10;142.43;;;26.17;;
54171;SDS011;40076;52.354;4.970;2023-03-01T08:56:38;130.57;;;24.70;;
54171;SDS011;40076;52.354;4.970;2023-03-01T08:59:03;71.65;;;25.90;;
54171;SDS011;40076;52.354;4.970;2023-03-01T09:01:29;195.07;;;28.17;;
54171;SDS011;40076;52.354;4.970;2023-03-01T09:03:55;218.82;;;29.75;;
54171;SDS011;40076;52.354;4.970;2023-03-01T09:06:20;206.57;;;28.13;;
54171;SDS011;40076;52.354;4.970;2023-03-01T09:08:47;155.95;;;29.13;;
54171;SDS011;40076;52.354;4.970;2023-03-01T09:11:14;69.65;;;28.85;;
54171;SDS011;40076;52.354;4.970;2023-03-01T09:13:42;97.80;;;29.23;;
54171;SDS011;40076;52.354;4.970;2023-03-01T09:16:08;65.80;;;29.15;;
54171;SDS011;40076;52.354;4.970;2023-03-01T09:18:35;225.55;;;33.08;;
54171;SDS011;40076;52.354;4.970;2023-03-01T09:21:11;86.15;;;30.17;;
54171;SDS011;40076;52.354;4.970;2023-03-01T09:23:39;80.43;;;31.52;;
54171;SDS011;40076;52.354;4.970;2023-03-01T09:26:10;100.70;;;31.58;;
54171;SDS011;40076;52.354;4.970;2023-03-01T09:28:41;150.95;;;31.10;;
54171;SDS011;40076;52.354;4.970;2023-03-01T09:31:06;91.13;;;29.63;;
54171;SDS011;40076;52.354;4.970;2023-03-01T09:33:32;92.65;;;31.83;;
54171;SDS011;40076;52.354;4.970;2023-03-01T09:38:24;81.60;;;31.08;;
54171;SDS011;40076;52.354;4.970;2023-03-01T09:40:49;106.45;;;33.03;;
54171;SDS011;40076;52.354;4.970;2023-03-01T09:43:26;118.57;;;34.28;;
54171;SDS011;40076;52.354;4.970;2023-03-01T09:46:10;57.10;;;30.80;;
54171;SDS011;40076;52.354;4.970;2023-03-01T09:48:41;70.93;;;32.58;;
54171;SDS011;40076;52.354;4.970;2023-03-01T09:51:46;72.38;;;33.70;;
54171;SDS011;40076;52.354;4.970;2023-03-01T09:54:03;101.50;;;35.70;;
54171;SDS011;40076;52.354;4.970;2023-03-01T09:56:53;116.00;;;36.28;;
54171;SDS011;40076;52.354;4.970;2023-03-01T10:05:05;92.28;;;36.00;;
54171;SDS011;40076;52.354;4.970;2023-03-01T10:07:48;101.65;;;37.65;;
54171;SDS011;40076;52.354;4.970;2023-03-01T10:12:59;95.22;;;39.22;;
54171;SDS011;40076;52.354;4.970;2023-03-01T10:15:35;92.97;;;41.70;;
54171;SDS011;40076;52.354;4.970;2023-03-01T10:18:12;87.93;;;40.85;;
54171;SDS011;40076;52.354;4.970;2023-03-01T10:23:18;79.93;;;39.35;;
54171;SDS011;40076;52.354;4.970;2023-03-01T10:25:47;80.72;;;39.53;;
54171;SDS011;40076;52.354;4.970;2023-03-01T10:28:25;83.68;;;40.60;;
54171;SDS011;40076;52.354;4.970;2023-03-01T10:31:02;74.05;;;38.13;;
54171;SDS011;40076;52.354;4.970;2023-03-01T10:33:35;71.38;;;38.95;;
54171;SDS011;40076;52.354;4.970;2023-03-01T10:36:04;65.47;;;36.80;;
54171;SDS011;40076;52.354;4.970;2023-03-01T10:38:31;59.97;;;34.92;;
54171;SDS011;40076;52.354;4.970;2023-03-01T10:41:11;61.67;;;34.70;;
54171;SDS011;40076;52.354;4.970;2023-03-01T10:43:44;55.67;;;33.30;;
54171;SDS011;40076;52.354;4.970;2023-03-01T10:51:29;50.20;;;31.45;;
54171;SDS011;40076;52.354;4.970;2023-03-01T10:53:55;50.03;;;31.10;;
54171;SDS011;40076;52.354;4.970;2023-03-01T10:56:20;45.67;;;29.50;;
54171;SDS011;40076;52.354;4.970;2023-03-01T10:59:02;44.05;;;29.20;;
54171;SDS011;40076;52.354;4.970;2023-03-01T11:01:31;46.20;;;28.55;;
54171;SDS011;40076;52.354;4.970;2023-03-01T11:06:30;43.35;;;27.48;;
54171;SDS011;40076;52.354;4.970;2023-03-01T11:08:56;40.88;;;26.67;;
54171;SDS011;40076;52.354;4.970;2023-03-01T11:11:23;40.50;;;26.85;;
54171;SDS011;40076;52.354;4.970;2023-03-01T11:16:45;41.33;;;26.13;;
54171;SDS011;40076;52.354;4.970;2023-03-01T11:19:15;38.03;;;25.40;;
54171;SDS011;40076;52.354;4.970;2023-03-01T11:24:55;41.35;;;25.50;;
54171;SDS011;40076;52.354;4.970;2023-03-01T11:27:23;38.47;;;23.98;;
54171;SDS011;40076;52.354;4.970;2023-03-01T11:29:55;36.92;;;23.65;;
54171;SDS011;40076;52.354;4.970;2023-03-01T11:32:44;37.58;;;24.33;;
54171;SDS011;40076;52.354;4.970;2023-03-01T11:35:26;27.98;;;17.73;;
54171;SDS011;40076;52.354;4.970;2023-03-01T11:40:43;34.33;;;22.60;;
54171;SDS011;40076;52.354;4.970;2023-03-01T11:43:16;32.47;;;21.42;;
54171;SDS011;40076;52.354;4.970;2023-03-01T11:46:34;32.47;;;22.60;;
54171;SDS011;40076;52.354;4.970;2023-03-01T11:54:33;31.45;;;21.67;;
54171;SDS011;40076;52.354;4.970;2023-03-01T12:10:43;27.00;;;18.65;;
54171;SDS011;40076;52.354;4.970;2023-03-01T12:16:07;28.83;;;18.48;;
54171;SDS011;40076;52.354;4.970;2023-03-01T12:21:28;27.70;;;18.30;;
54171;SDS011;40076;52.354;4.970;2023-03-01T12:24:10;25.08;;;15.88;;
54171;SDS011;40076;52.354;4.970;2023-03-01T12:30:09;24.58;;;17.05;;
54171;SDS011;40076;52.354;4.970;2023-03-01T12:32:40;25.38;;;16.73;;
54171;SDS011;40076;52.354;4.970;2023-03-01T12:38:11;25.13;;;16.30;;
54171;SDS011;40076;52.354;4.970;2023-03-01T12:51:24;20.45;;;14.20;;
54171;SDS011;40076;52.354;4.970;2023-03-01T12:53:58;18.42;;;10.65;;
54171;SDS011;40076;52.354;4.970;2023-03-01T12:56:28;20.17;;;12.85;;
54171;SDS011;40076;52.354;4.970;2023-03-01T13:01:53;17.50;;;11.82;;
54171;SDS011;40076;52.354;4.970;2023-03-01T13:04:44;23.90;;;14.88;;
54171;SDS011;40076;52.354;4.970;2023-03-01T13:10:23;24.27;;;16.20;;
54171;SDS011;40076;52.354;4.970;2023-03-01T13:17:48;27.05;;;17.48;;
54171;SDS011;40076;52.354;4.970;2023-03-01T13:20:18;23.17;;;16.88;;
54171;SDS011;40076;52.354;4.970;2023-03-01T13:22:46;25.95;;;17.67;;
54171;SDS011;40076;52.354;4.970;2023-03-01T13:25:24;26.05;;;16.45;;
54171;SDS011;40076;52.354;4.970;2023-03-01T13:27:51;30.63;;;19.58;;
54171;SDS011;40076;52.354;4.970;2023-03-01T13:30:55;23.02;;;15.45;;
54171;SDS011;40076;52.354;4.970;2023-03-01T13:35:48;22.63;;;14.77;;
54171;SDS011;40076;52.354;4.970;2023-03-01T13:38:36;24.88;;;15.43;;
54171;SDS011;40076;52.354;4.970;2023-03-01T13:41:03;23.58;;;14.70;;
54171;SDS011;40076;52.354;4.970;2023-03-01T13:43:40;22.40;;;14.13;;
54171;SDS011;40076;52.354;4.970;2023-03-01T13:46:11;27.27;;;14.45;;
54171;SDS011;40076;52.354;4.970;2023-03-01T13:48:52;24.20;;;14.32;;
54171;SDS011;40076;52.354;4.970;2023-03-01T13:51:21;21.27;;;14.48;;
54171;SDS011;40076;52.354;4.970;2023-03-01T13:53:50;19.35;;;13.18;;
54171;SDS011;40076;52.354;4.970;2023-03-01T13:56:21;20.13;;;12.45;;
54171;SDS011;40076;52.354;4.970;2023-03-01T13:58:55;20.50;;;12.02;;
54171;SDS011;40076;52.354;4.970;2023-03-01T14:03:49;17.60;;;11.17;;
54171;SDS011;40076;52.354;4.970;2023-03-01T14:06:25;17.90;;;10.82;;
54171;SDS011;40076;52.354;4.970;2023-03-01T14:09:04;17.48;;;10.10;;
54171;SDS011;40076;52.354;4.970;2023-03-01T14:17:58;14.45;;;9.60;;
54171;SDS011;40076;52.354;4.970;2023-03-01T14:20:26;15.15;;;9.65;;
54171;SDS011;40076;52.354;4.970;2023-03-01T14:22:55;14.93;;;9.85;;
54171;SDS011;40076;52.354;4.970;2023-03-01T14:25:29;15.57;;;9.45;;
54171;SDS011;40076;52.354;4.970;2023-03-01T14:27:58;15.15;;;9.07;;
54171;SDS011;40076;52.354;4.970;2023-03-01T14:30:46;15.90;;;9.27;;
54171;SDS011;40076;52.354;4.970;2023-03-01T14:33:26;20.50;;;11.95;;
54171;SDS011;40076;52.354;4.970;2023-03-01T14:35:57;14.15;;;9.73;;
54171;SDS011;40076;52.354;4.970;2023-03-01T14:38:37;15.82;;;8.80;;
54171;SDS011;40076;52.354;4.970;2023-03-01T14:43:47;18.15;;;12.35;;
54171;SDS011;40076;52.354;4.970;2023-03-01T14:46:20;20.40;;;11.80;;
54171;SDS011;40076;52.354;4.970;2023-03-01T14:48:54;17.70;;;12.38;;
54171;SDS011;40076;52.354;4.970;2023-03-01T14:51:23;17.90;;;10.67;;
54171;SDS011;40076;52.354;4.970;2023-03-01T14:53:49;13.23;;;7.97;;
54171;SDS011;40076;52.354;4.970;2023-03-01T14:56:16;11.43;;;7.50;;
54171;SDS011;40076;52.354;4.970;2023-03-01T14:58:45;12.45;;;7.72;;
54171;SDS011;40076;52.354;4.970;2023-03-01T15:01:16;10.90;;;7.38;;
54171;SDS011;40076;52.354;4.970;2023-03-01T15:03:46;11.57;;;7.07;;
54171;SDS011;40076;52.354;4.970;2023-03-01T15:06:20;12.63;;;7.45;;
54171;SDS011;40076;52.354;4.970;2023-03-01T15:08:48;12.43;;;7.47;;
54171;SDS011;40076;52.354;4.970;2023-03-01T15:11:23;10.65;;;7.18;;
54171;SDS011;40076;52.354;4.970;2023-03-01T15:13:58;10.82;;;7.30;;
54171;SDS011;40076;52.354;4.970;2023-03-01T15:16:29;12.60;;;7.15;;
54171;SDS011;40076;52.354;4.970;2023-03-01T15:18:57;11.27;;;6.93;;
54171;SDS011;40076;52.354;4.970;2023-03-01T15:21:35;9.98;;;7.05;;
54171;SDS011;40076;52.354;4.970;2023-03-01T15:26:31;11.55;;;7.03;;
54171;SDS011;40076;52.354;4.970;2023-03-01T15:29:01;12.88;;;8.52;;
54171;SDS011;40076;52.354;4.970;2023-03-01T15:31:36;11.15;;;7.43;;
54171;SDS011;40076;52.354;4.970;2023-03-01T15:34:08;13.80;;;8.07;;
54171;SDS011;40076;52.354;4.970;2023-03-01T15:36:39;12.25;;;7.65;;
54171;SDS011;40076;52.354;4.970;2023-03-01T15:45:10;12.20;;;7.68;;
54171;SDS011;40076;52.354;4.970;2023-03-01T15:47:35;11.77;;;7.82;;
54171;SDS011;40076;52.354;4.970;2023-03-01T15:50:04;11.85;;;7.35;;
54171;SDS011;40076;52.354;4.970;2023-03-01T15:52:34;13.65;;;9.02;;
54171;SDS011;40076;52.354;4.970;2023-03-01T15:55:05;13.00;;;8.52;;
54171;SDS011;40076;52.354;4.970;2023-03-01T15:57:39;10.25;;;6.93;;
54171;SDS011;40076;52.354;4.970;2023-03-01T16:00:04;11.48;;;6.65;;
54171;SDS011;40076;52.354;4.970;2023-03-01T16:02:36;13.05;;;7.75;;
54171;SDS011;40076;52.354;4.970;2023-03-01T16:05:03;10.80;;;7.13;;
54171;SDS011;40076;52.354;4.970;2023-03-01T16:07:28;11.25;;;7.05;;
54171;SDS011;40076;52.354;4.970;2023-03-01T16:09:55;13.13;;;7.43;;
54171;SDS011;40076;52.354;4.970;2023-03-01T16:12:21;14.38;;;7.60;;
54171;SDS011;40076;52.354;4.970;2023-03-01T16:14:47;12.93;;;7.63;;
54171;SDS011;40076;52.354;4.970;2023-03-01T16:17:13;10.18;;;6.72;;
54171;SDS011;40076;52.354;4.970;2023-03-01T16:19:39;9.75;;;7.18;;
54171;SDS011;40076;52.354;4.970;2023-03-01T16:22:05;11.23;;;7.18;;
54171;SDS011;40076;52.354;4.970;2023-03-01T16:24:31;10.35;;;7.22;;
54171;SDS011;40076;52.354;4.970;2023-03-01T16:26:57;9.80;;;6.72;;
54171;SDS011;40076;52.354;4.970;2023-03-01T16:29:22;11.18;;;6.65;;
54171;SDS011;40076;52.354;4.970;2023-03-01T16:31:48;10.23;;;6.85;;
54171;SDS011;40076;52.354;4.970;2023-03-01T16:34:13;11.27;;;6.75;;